createdAt,value
2023-03-11T00:01:43.561Z,-0.52
2023-03-11T00:04:10.272Z,-0.55
2023-03-11T00:06:37.399Z,-0.63
2023-03-11T00:09:05.168Z,-0.45
2023-03-11T00:11:31.998Z,-0.45
2023-03-11T00:13:58.699Z,-0.49
2023-03-11T00:16:25.317Z,-0.33
2023-03-11T00:18:52.810Z,-0.37
2023-03-11T00:21:20.302Z,-0.38
2023-03-11T00:23:47.376Z,-0.38
2023-03-11T00:26:14.207Z,-0.52
2023-03-11T00:28:40.991Z,-0.70
2023-03-11T00:31:12.873Z,-0.50
2023-03-11T00:33:39.731Z,-0.56
2023-03-11T00:36:07.009Z,-0.82
2023-03-11T00:38:33.862Z,-0.69
2023-03-11T00:41:01.932Z,-0.67
2023-03-11T00:43:31.360Z,-0.51
2023-03-11T00:45:58.143Z,-0.59
2023-03-11T00:48:24.721Z,-0.73
2023-03-11T00:50:51.399Z,-0.66
2023-03-11T00:53:18.233Z,-0.46
2023-03-11T00:55:47.696Z,-0.78
2023-03-11T00:58:14.432Z,-0.35
2023-03-11T01:00:45.765Z,-0.55
2023-03-11T01:03:12.390Z,-0.65
2023-03-11T01:05:39.060Z,-0.35
2023-03-11T01:08:06.105Z,-0.48
2023-03-11T01:10:34.295Z,-0.55
2023-03-11T01:13:01.448Z,-0.54
2023-03-11T01:15:34.524Z,-0.42
2023-03-11T01:18:01.730Z,-0.33
2023-03-11T01:20:29.431Z,-0.25
2023-03-11T01:22:56.173Z,-0.39
2023-03-11T01:25:24.367Z,-0.30
2023-03-11T01:27:50.984Z,-0.46
2023-03-11T01:30:23.898Z,-0.34
2023-03-11T01:32:52.338Z,-0.35
2023-03-11T01:35:21.620Z,-0.31
2023-03-11T01:37:48.346Z,-0.33
2023-03-11T01:40:24.310Z,-0.43
2023-03-11T01:42:50.927Z,-0.42
2023-03-11T01:45:40.593Z,-0.44
2023-03-11T01:48:10.117Z,-0.38
2023-03-11T01:50:43.236Z,-0.43
2023-03-11T01:53:12.036Z,-0.45
2023-03-11T01:55:40.823Z,-0.59
2023-03-11T01:58:11.839Z,-0.65
2023-03-11T02:00:38.930Z,-0.79
2023-03-11T02:03:19.005Z,-0.62
2023-03-11T02:05:47.590Z,-0.64
2023-03-11T02:08:14.285Z,-0.56
2023-03-11T02:10:42.681Z,-0.49
2023-03-11T02:13:10.665Z,-0.47
2023-03-11T02:15:39.794Z,-0.74
2023-03-11T02:18:07.543Z,-0.52
2023-03-11T02:21:03.585Z,-0.47
2023-03-11T02:23:39.074Z,-0.53
2023-03-11T02:26:32.342Z,-0.52
2023-03-11T02:29:00.547Z,-0.62
2023-03-11T02:31:28.583Z,-0.76
2023-03-11T02:33:59.452Z,-0.67
2023-03-11T02:36:36.925Z,-0.65
2023-03-11T02:39:05.438Z,-0.73
2023-03-11T02:41:37.563Z,-0.78
2023-03-11T02:44:08.335Z,-0.95
2023-03-11T02:46:36.851Z,-0.91
2023-03-11T02:49:03.957Z,-0.75
2023-03-11T02:51:30.596Z,-0.99
2023-03-11T02:54:01.947Z,-0.70
2023-03-11T02:56:29.601Z,-0.85
2023-03-11T02:58:56.206Z,-0.95
2023-03-11T03:01:22.969Z,-0.79
2023-03-11T03:03:50.452Z,-0.92
2023-03-11T03:06:17.307Z,-0.67
2023-03-11T03:08:44.062Z,-0.80
2023-03-11T03:11:10.780Z,-0.87
2023-03-11T03:13:37.418Z,-0.97
2023-03-11T03:16:04.395Z,-0.92
2023-03-11T03:18:32.512Z,-0.95
2023-03-11T03:20:59.976Z,-0.98
2023-03-11T03:23:26.666Z,-0.99
2023-03-11T03:25:53.319Z,-1.21
2023-03-11T03:28:20.208Z,-1.00
2023-03-11T03:30:46.948Z,-1.04
2023-03-11T03:33:14.376Z,-1.06
2023-03-11T03:35:43.207Z,-1.13
2023-03-11T03:38:18.083Z,-1.10
2023-03-11T03:40:48.325Z,-1.29
2023-03-11T03:43:17.726Z,-1.08
2023-03-11T03:45:46.034Z,-1.20
2023-03-11T03:48:12.785Z,-1.36
2023-03-11T03:50:43.288Z,-1.13
2023-03-11T03:53:13.207Z,-1.08
2023-03-11T03:55:40.388Z,-1.21
2023-03-11T03:58:07.097Z,-1.39
2023-03-11T04:00:35.897Z,-1.27
2023-03-11T04:03:04.057Z,-1.35
2023-03-11T04:05:46.467Z,-1.42
2023-03-11T04:08:13.980Z,-1.59
2023-03-11T04:10:40.740Z,-1.40
2023-03-11T04:13:08.061Z,-1.34
2023-03-11T04:15:34.798Z,-1.41
2023-03-11T04:18:01.454Z,-1.56
2023-03-11T04:20:28.312Z,-1.52
2023-03-11T04:22:54.941Z,-1.50
2023-03-11T04:25:23.744Z,-1.90
2023-03-11T04:27:52.317Z,-1.42
2023-03-11T04:30:20.107Z,-1.66
2023-03-11T04:32:49.019Z,-1.53
2023-03-11T04:35:16.144Z,-1.50
2023-03-11T04:37:42.976Z,-1.25
2023-03-11T04:40:11.191Z,-1.24
2023-03-11T04:42:39.043Z,-1.22
2023-03-11T04:45:07.656Z,-1.37
2023-03-11T04:47:35.144Z,-1.34
2023-03-11T04:50:03.960Z,-1.56
2023-03-11T04:52:30.845Z,-1.47
2023-03-11T04:54:57.598Z,-1.55
2023-03-11T04:57:24.448Z,-1.41
2023-03-11T04:59:51.063Z,-1.69
2023-03-11T05:02:18.274Z,-1.31
2023-03-11T05:04:53.099Z,-1.58
2023-03-11T05:07:19.862Z,-1.48
2023-03-11T05:09:46.913Z,-1.67
2023-03-11T05:12:13.640Z,-1.39
2023-03-11T05:14:42.337Z,-1.57
2023-03-11T05:17:12.036Z,-1.40
2023-03-11T05:19:38.780Z,-1.57
2023-03-11T05:22:18.540Z,-1.51
2023-03-11T05:24:46.829Z,-1.28
2023-03-11T05:27:17.837Z,-1.28
2023-03-11T05:29:47.130Z,-1.28
2023-03-11T05:32:14.869Z,-1.23
2023-03-11T05:34:43.584Z,-1.50
2023-03-11T05:37:12.454Z,-1.15
2023-03-11T05:39:39.118Z,-1.56
2023-03-11T05:42:06.855Z,-1.42
2023-03-11T05:44:33.709Z,-1.28
2023-03-11T05:47:01.390Z,-1.28
2023-03-11T05:49:28.331Z,-1.51
2023-03-11T05:51:58.368Z,-1.59
2023-03-11T05:54:26.306Z,-1.42
2023-03-11T05:56:55.561Z,-1.69
2023-03-11T05:59:24.049Z,-1.23
2023-03-11T06:01:56.361Z,-1.73
2023-03-11T06:04:24.681Z,-1.55
2023-03-11T06:06:51.459Z,-1.52
2023-03-11T06:09:20.729Z,-1.85
2023-03-11T06:11:47.559Z,-1.60
2023-03-11T06:14:16.262Z,-1.57
2023-03-11T06:16:45.104Z,-1.71
2023-03-11T06:19:12.426Z,-1.97
2023-03-11T06:21:42.952Z,-1.54
2023-03-11T06:24:09.623Z,-2.02
2023-03-11T06:26:37.011Z,-1.57
2023-03-11T06:29:04.667Z,-1.57
2023-03-11T06:31:32.212Z,-1.98
2023-03-11T06:34:06.257Z,-1.74
2023-03-11T06:36:33.684Z,-1.92
2023-03-11T06:39:00.412Z,-1.79
2023-03-11T06:41:28.075Z,-1.92
2023-03-11T06:43:59.700Z,-1.76
2023-03-11T06:46:27.620Z,-1.92
2023-03-11T06:48:58.535Z,-1.99
2023-03-11T06:51:25.308Z,-1.68
2023-03-11T06:53:53.402Z,-1.99
2023-03-11T06:56:23.100Z,-1.62
2023-03-11T06:58:55.812Z,-2.10
2023-03-11T07:01:26.028Z,-1.52
2023-03-11T07:03:55.010Z,-1.88
2023-03-11T07:06:25.526Z,-1.57
2023-03-11T07:08:57.625Z,-1.50
2023-03-11T07:11:25.952Z,-1.39
2023-03-11T07:13:56.715Z,-1.45
2023-03-11T07:16:26.441Z,-1.13
2023-03-11T07:19:00.974Z,-0.88
2023-03-11T07:21:29.318Z,-0.88
2023-03-11T07:23:58.206Z,-0.91
2023-03-11T07:26:25.858Z,-1.21
2023-03-11T07:28:54.264Z,-0.73
2023-03-11T07:31:30.314Z,-0.55
2023-03-11T07:33:59.168Z,-0.46
2023-03-11T07:36:26.020Z,-0.90
2023-03-11T07:39:04.988Z,-0.55
2023-03-11T07:41:34.097Z,-0.61
2023-03-11T07:44:02.267Z,-0.59
2023-03-11T07:46:29.992Z,-0.93
2023-03-11T07:48:57.122Z,-0.75
2023-03-11T07:51:26.273Z,-1.74
2023-03-11T07:53:55.289Z,-0.54
2023-03-11T07:56:23.955Z,-0.68
2023-03-11T07:58:51.802Z,-0.75
2023-03-11T08:01:21.788Z,-0.77
2023-03-11T08:03:51.087Z,-0.87
2023-03-11T08:06:20.348Z,-0.46
2023-03-11T08:08:47.847Z,-0.40
2023-03-11T08:11:15.384Z,-0.42
2023-03-11T08:13:43.199Z,-0.48
2023-03-11T08:16:12.593Z,-0.51
2023-03-11T08:18:39.253Z,-0.87
2023-03-11T08:21:07.008Z,-0.62
2023-03-11T08:23:33.753Z,-0.64
2023-03-11T08:26:04.461Z,-0.67
2023-03-11T08:28:31.348Z,-0.46
2023-03-11T08:30:57.928Z,-0.51
2023-03-11T08:33:24.599Z,-1.09
2023-03-11T08:35:51.184Z,-0.92
2023-03-11T08:38:17.850Z,-0.72
2023-03-11T08:40:44.482Z,-0.80
2023-03-11T08:43:15.274Z,-0.26
2023-03-11T08:45:44.806Z,-0.28
2023-03-11T08:48:13.772Z,-0.46
2023-03-11T08:50:53.305Z,-0.31
2023-03-11T08:53:22.517Z,-0.28
2023-03-11T08:55:50.849Z,-0.22
2023-03-11T08:58:18.059Z,-0.48
2023-03-11T09:00:45.060Z,-0.69
2023-03-11T09:03:11.853Z,-0.65
2023-03-11T09:05:38.518Z,-0.53
2023-03-11T09:08:05.914Z,-0.27
2023-03-11T09:10:32.818Z,0.05
2023-03-11T09:12:59.468Z,-0.15
2023-03-11T09:15:26.173Z,0.02
2023-03-11T09:17:53.193Z,-0.37
2023-03-11T09:20:20.008Z,-0.88
2023-03-11T09:22:46.904Z,-0.64
2023-03-11T09:25:13.949Z,-0.27
2023-03-11T09:27:41.450Z,-0.12
2023-03-11T09:30:09.962Z,-0.16
2023-03-11T09:32:36.784Z,-0.13
2023-03-11T09:35:03.852Z,0.09
2023-03-11T09:37:30.522Z,-0.04
2023-03-11T09:39:57.216Z,0.13
2023-03-11T09:42:44.038Z,0.35
2023-03-11T09:45:24.071Z,0.42
2023-03-11T09:48:32.873Z,0.33
2023-03-11T09:51:08.944Z,0.39
2023-03-11T09:53:42.241Z,0.34
2023-03-11T09:56:16.941Z,0.40
2023-03-11T09:58:45.728Z,0.38
2023-03-11T10:01:21.189Z,0.42
2023-03-11T10:03:49.925Z,0.43
2023-03-11T10:06:25.397Z,0.59
2023-03-11T10:08:54.930Z,0.96
2023-03-11T10:11:47.983Z,0.61
2023-03-11T10:14:20.541Z,0.90
2023-03-11T10:17:22.363Z,0.28
2023-03-11T10:20:04.931Z,0.19
2023-03-11T10:22:47.458Z,-0.05
2023-03-11T10:25:17.623Z,0.29
2023-03-11T10:27:55.436Z,0.24
2023-03-11T10:30:52.554Z,-0.03
2023-03-11T10:33:28.268Z,0.12
2023-03-11T10:35:58.628Z,0.45
2023-03-11T10:38:33.151Z,0.52
2023-03-11T10:41:03.233Z,0.61
2023-03-11T10:43:41.594Z,0.48
2023-03-11T10:46:19.029Z,0.55
2023-03-11T10:48:45.714Z,0.44
2023-03-11T10:51:22.436Z,0.74
2023-03-11T10:53:57.614Z,0.44
2023-03-11T10:56:36.005Z,0.61
2023-03-11T10:59:05.512Z,-0.04
2023-03-11T11:01:32.491Z,0.52
2023-03-11T11:04:01.920Z,0.45
2023-03-11T11:06:28.896Z,0.65
2023-03-11T11:09:06.484Z,0.47
2023-03-11T11:11:36.699Z,0.82
2023-03-11T11:14:03.872Z,0.41
2023-03-11T11:16:32.806Z,0.37
2023-03-11T11:19:05.593Z,0.67
2023-03-11T11:21:37.282Z,0.49
2023-03-11T11:24:14.437Z,0.53
2023-03-11T11:26:41.278Z,0.34
2023-03-11T11:29:14.178Z,0.72
2023-03-11T11:31:44.600Z,0.91
2023-03-11T11:34:26.789Z,1.02
2023-03-11T11:36:57.131Z,0.94
2023-03-11T11:39:27.541Z,0.81
2023-03-11T11:41:55.803Z,0.75
2023-03-11T11:44:32.401Z,0.75
2023-03-11T11:47:06.779Z,0.76
2023-03-11T11:49:35.258Z,0.75
2023-03-11T11:52:19.425Z,0.65
2023-03-11T11:54:53.313Z,0.45
2023-03-11T11:57:22.608Z,0.56
2023-03-11T11:59:49.587Z,0.58
2023-03-11T12:02:24.081Z,0.30
2023-03-11T12:04:56.838Z,0.26
2023-03-11T12:07:48.238Z,0.07
2023-03-11T12:10:42.729Z,0.35
2023-03-11T12:13:29.028Z,0.17
2023-03-11T12:16:05.176Z,-0.11
2023-03-11T12:18:38.553Z,-0.36
2023-03-11T12:21:33.313Z,-0.11
2023-03-11T12:24:22.121Z,-0.23
2023-03-11T12:26:52.219Z,-0.35
2023-03-11T12:29:31.447Z,-0.07
2023-03-11T12:32:00.447Z,-0.28
2023-03-11T12:34:29.593Z,-0.56
2023-03-11T12:37:02.280Z,-0.34
2023-03-11T12:39:34.288Z,-0.07
2023-03-11T12:42:21.985Z,-0.14
2023-03-11T12:44:50.007Z,-0.11
2023-03-11T12:47:22.854Z,-0.04
2023-03-11T12:49:54.977Z,0.23
2023-03-11T12:52:27.600Z,0.37
2023-03-11T12:55:01.154Z,0.39
2023-03-11T12:57:54.066Z,0.15
2023-03-11T13:00:27.284Z,0.19
2023-03-11T13:03:12.923Z,0.28
2023-03-11T13:06:09.189Z,0.51
2023-03-11T13:08:55.262Z,0.42
2023-03-11T13:11:34.164Z,0.32
2023-03-11T13:14:26.487Z,0.43
2023-03-11T13:16:54.119Z,0.20
2023-03-11T13:19:26.876Z,0.42
2023-03-11T13:21:59.635Z,0.42
2023-03-11T13:24:26.314Z,0.49
2023-03-11T13:26:59.261Z,0.40
2023-03-11T13:29:53.471Z,0.51
2023-03-11T13:33:13.656Z,0.53
2023-03-11T13:36:07.326Z,0.69
2023-03-11T13:38:45.390Z,0.84
2023-03-11T13:41:22.542Z,0.60
2023-03-11T13:43:51.307Z,0.79
2023-03-11T13:46:30.777Z,0.77
2023-03-11T13:49:06.341Z,0.97
2023-03-11T13:51:45.488Z,0.82
2023-03-11T13:54:20.072Z,0.59
2023-03-11T13:56:52.435Z,0.61
2023-03-11T13:59:30.612Z,0.44
2023-03-11T14:02:02.440Z,0.68
2023-03-11T14:04:31.727Z,0.77
2023-03-11T14:06:59.648Z,0.79
2023-03-11T14:09:29.663Z,0.25
2023-03-11T14:12:05.204Z,0.25
2023-03-11T14:14:44.055Z,0.26
2023-03-11T14:17:15.802Z,0.26
2023-03-11T14:19:43.338Z,0.18
2023-03-11T14:22:11.074Z,0.26
2023-03-11T14:24:39.705Z,0.32
2023-03-11T14:27:09.551Z,0.03
2023-03-11T14:29:42.574Z,0.45
2023-03-11T14:32:32.348Z,0.51
2023-03-11T14:34:59.541Z,0.02
2023-03-11T14:37:37.349Z,0.27
2023-03-11T14:40:25.731Z,-0.20
2023-03-11T14:42:55.768Z,-0.12
2023-03-11T14:45:26.056Z,0.40
2023-03-11T14:48:01.856Z,0.48
2023-03-11T14:50:35.111Z,0.11
2023-03-11T14:53:16.867Z,0.36
2023-03-11T14:56:06.766Z,0.16
2023-03-11T14:58:37.570Z,0.49
2023-03-11T15:01:09.276Z,0.27
2023-03-11T15:03:41.293Z,-0.01
2023-03-11T15:06:25.442Z,0.23
2023-03-11T15:08:59.323Z,0.42
2023-03-11T15:11:29.285Z,0.41
2023-03-11T15:14:16.782Z,0.31
2023-03-11T15:16:43.435Z,0.12
2023-03-11T15:19:22.995Z,0.41
2023-03-11T15:21:54.513Z,0.32
2023-03-11T15:24:24.427Z,0.47
2023-03-11T15:27:01.837Z,0.25
2023-03-11T15:29:30.259Z,0.37
2023-03-11T15:31:57.359Z,0.36
2023-03-11T15:34:32.602Z,0.37
2023-03-11T15:37:17.998Z,0.43
2023-03-11T15:39:46.698Z,0.40
2023-03-11T15:42:18.905Z,0.33
2023-03-11T15:44:52.624Z,0.69
2023-03-11T15:47:21.658Z,0.63
2023-03-11T15:49:48.741Z,0.81
2023-03-11T15:52:16.298Z,0.42
2023-03-11T15:54:47.424Z,0.33
2023-03-11T15:57:27.314Z,0.81
2023-03-11T15:59:56.691Z,0.86
2023-03-11T16:02:25.915Z,0.52
2023-03-11T16:04:53.368Z,0.31
2023-03-11T16:07:29.504Z,0.22
2023-03-11T16:10:05.730Z,0.54
2023-03-11T16:12:32.570Z,0.34
2023-03-11T16:14:59.189Z,0.24
2023-03-11T16:17:26.575Z,0.32
2023-03-11T16:19:54.126Z,0.43
2023-03-11T16:22:32.177Z,0.02
2023-03-11T16:24:59.829Z,0.16
2023-03-11T16:27:28.164Z,0.10
2023-03-11T16:29:54.824Z,-0.08
2023-03-11T16:32:21.532Z,0.15
2023-03-11T16:34:48.227Z,0.09
2023-03-11T16:37:16.822Z,0.05
2023-03-11T16:39:43.471Z,-0.15
2023-03-11T16:42:10.108Z,-0.31
2023-03-11T16:44:36.720Z,-0.26
2023-03-11T16:47:03.343Z,-0.26
2023-03-11T16:49:29.917Z,-0.06
2023-03-11T16:51:56.516Z,-0.06
2023-03-11T16:54:23.137Z,-0.15
2023-03-11T16:56:49.767Z,-0.23
2023-03-11T16:59:16.368Z,0.02
2023-03-11T17:01:43.122Z,-0.05
2023-03-11T17:04:09.991Z,-0.16
2023-03-11T17:06:36.604Z,-0.20
2023-03-11T17:09:03.531Z,-0.15
2023-03-11T17:11:30.852Z,-0.23
2023-03-11T17:14:10.074Z,-0.40
2023-03-11T17:16:42.034Z,-0.21
2023-03-11T17:19:08.675Z,-0.22
2023-03-11T17:21:35.249Z,-0.06
2023-03-11T17:24:01.871Z,0.02
2023-03-11T17:26:30.966Z,-0.17
2023-03-11T17:28:57.616Z,-0.31
2023-03-11T17:31:24.268Z,-0.25
2023-03-11T17:33:50.928Z,-0.05
2023-03-11T17:36:18.662Z,-0.28
2023-03-11T17:38:47.328Z,-0.39
2023-03-11T17:41:16.486Z,-0.42
2023-03-11T17:43:43.959Z,-0.45
2023-03-11T17:46:16.076Z,-0.51
2023-03-11T17:48:44.565Z,-0.57
2023-03-11T17:51:13.682Z,-0.37
2023-03-11T17:53:44.576Z,-0.26
2023-03-11T17:56:13.940Z,-0.56
2023-03-11T17:58:40.738Z,-0.35
2023-03-11T18:01:10.958Z,-0.17
2023-03-11T18:03:37.556Z,-0.39
2023-03-11T18:06:06.715Z,-0.12
2023-03-11T18:08:35.249Z,-0.16
2023-03-11T18:11:07.605Z,-0.31
2023-03-11T18:13:35.671Z,-0.31
2023-03-11T18:16:07.317Z,-0.11
2023-03-11T18:18:35.235Z,-0.02
2023-03-11T18:21:03.844Z,-0.15
2023-03-11T18:23:33.086Z,-0.07
2023-03-11T18:26:00.983Z,-0.07
2023-03-11T18:28:28.060Z,-0.02
2023-03-11T18:30:54.784Z,-0.22
2023-03-11T18:33:23.291Z,-0.47
2023-03-11T18:35:50.142Z,-0.59
2023-03-11T18:38:16.930Z,-0.49
2023-03-11T18:40:44.256Z,-0.52
2023-03-11T18:43:13.476Z,-0.56
2023-03-11T18:45:40.284Z,-0.59
2023-03-11T18:48:06.951Z,-0.76
2023-03-11T18:50:33.578Z,-0.83
2023-03-11T18:53:00.296Z,-0.74
2023-03-11T18:55:26.994Z,-0.79
2023-03-11T18:57:53.675Z,-0.85
2023-03-11T19:00:23.722Z,-0.76
2023-03-11T19:02:52.110Z,-1.01
2023-03-11T19:05:18.884Z,-1.02
2023-03-11T19:07:45.695Z,-0.88
2023-03-11T19:10:12.435Z,-0.87
2023-03-11T19:12:39.992Z,-0.83
2023-03-11T19:15:07.260Z,-0.92
2023-03-11T19:17:33.955Z,-1.01
2023-03-11T19:20:00.710Z,-0.75
2023-03-11T19:22:27.359Z,-0.56
2023-03-11T19:24:54.058Z,-1.02
2023-03-11T19:27:20.630Z,-1.29
2023-03-11T19:29:47.294Z,-1.43
2023-03-11T19:32:14.087Z,-1.38
2023-03-11T19:34:40.872Z,-1.41
2023-03-11T19:37:07.474Z,-1.43
2023-03-11T19:39:34.152Z,-1.48
2023-03-11T19:42:01.083Z,-1.38
2023-03-11T19:44:27.740Z,-1.37
2023-03-11T19:46:54.404Z,-1.70
2023-03-11T19:49:21.992Z,-1.43
2023-03-11T19:51:50.615Z,-1.55
2023-03-11T19:54:18.349Z,-1.29
2023-03-11T19:56:46.046Z,-1.41
2023-03-11T19:59:12.646Z,-1.60
2023-03-11T20:01:39.417Z,-1.65
2023-03-11T20:04:06.140Z,-1.65
2023-03-11T20:06:32.962Z,-1.69
2023-03-11T20:08:59.817Z,-1.92
2023-03-11T20:11:27.135Z,-1.86
2023-03-11T20:13:56.623Z,-2.05
2023-03-11T20:16:23.314Z,-2.12
2023-03-11T20:18:50.890Z,-2.17
2023-03-11T20:21:17.624Z,-2.13
2023-03-11T20:23:44.313Z,-2.07
2023-03-11T20:26:14.310Z,-1.85
2023-03-11T20:28:41.533Z,-1.97
2023-03-11T20:31:17.638Z,-1.72
2023-03-11T20:33:44.384Z,-1.76
2023-03-11T20:36:13.877Z,-1.72
2023-03-11T20:38:40.983Z,-1.86
2023-03-11T20:41:09.784Z,-2.15
2023-03-11T20:43:37.808Z,-2.09
2023-03-11T20:46:06.553Z,-2.03
2023-03-11T20:48:35.164Z,-2.08
2023-03-11T20:51:08.852Z,-2.09
2023-03-11T20:53:35.572Z,-2.30
2023-03-11T20:56:09.181Z,-2.07
2023-03-11T20:58:36.340Z,-2.29
2023-03-11T21:01:12.187Z,-2.13
2023-03-11T21:03:39.042Z,-2.34
2023-03-11T21:06:13.444Z,-2.27
2023-03-11T21:08:40.413Z,-2.31
2023-03-11T21:11:07.102Z,-2.36
2023-03-11T21:13:35.904Z,-2.37
2023-03-11T21:16:04.483Z,-2.30
2023-03-11T21:18:31.748Z,-2.40
2023-03-11T21:20:58.405Z,-1.99
2023-03-11T21:23:25.104Z,-2.23
2023-03-11T21:25:59.500Z,-2.85
2023-03-11T21:28:26.806Z,-2.31
2023-03-11T21:31:00.998Z,-2.27
2023-03-11T21:33:28.429Z,-2.17
2023-03-11T21:35:57.926Z,-2.43
2023-03-11T21:38:25.201Z,-2.19
2023-03-11T21:40:52.828Z,-2.20
2023-03-11T21:43:20.980Z,-2.22
2023-03-11T21:45:47.894Z,-2.75
2023-03-11T21:48:14.630Z,-2.49
2023-03-11T21:50:41.975Z,-2.62
2023-03-11T21:53:08.981Z,-2.62
2023-03-11T21:55:35.664Z,-2.79
2023-03-11T21:58:02.264Z,-2.71
2023-03-11T22:00:28.988Z,-2.77
2023-03-11T22:02:55.665Z,-2.55
2023-03-11T22:05:22.439Z,-2.74
2023-03-11T22:07:49.029Z,-3.20
2023-03-11T22:10:16.064Z,-2.78
2023-03-11T22:12:42.762Z,-3.00
2023-03-11T22:15:09.834Z,-3.03
2023-03-11T22:17:36.831Z,-3.00
2023-03-11T22:20:05.717Z,-3.10
2023-03-11T22:22:33.300Z,-2.92
2023-03-11T22:24:59.943Z,-3.16
2023-03-11T22:27:28.617Z,-3.03
2023-03-11T22:29:55.252Z,-2.83
2023-03-11T22:32:21.863Z,-3.09
2023-03-11T22:34:48.670Z,-3.17
2023-03-11T22:37:15.360Z,-3.16
2023-03-11T22:39:42.056Z,-2.93
2023-03-11T22:42:08.735Z,-3.15
2023-03-11T22:44:35.354Z,-3.32
2023-03-11T22:47:02.189Z,-3.00
2023-03-11T22:49:28.946Z,-3.05
2023-03-11T22:51:55.637Z,-3.24
2023-03-11T22:54:22.265Z,-3.11
2023-03-11T22:56:49.013Z,-3.20
2023-03-11T22:59:15.577Z,-3.16
2023-03-11T23:01:42.473Z,-3.17
2023-03-11T23:04:09.245Z,-3.21
2023-03-11T23:06:35.886Z,-3.09
2023-03-11T23:09:04.543Z,-3.06
2023-03-11T23:11:31.308Z,-3.31
2023-03-11T23:13:58.072Z,-3.19
2023-03-11T23:16:26.226Z,-3.17
2023-03-11T23:18:55.042Z,-3.18
2023-03-11T23:21:30.953Z,-3.35
2023-03-11T23:24:00.594Z,-3.49
2023-03-11T23:26:28.814Z,-3.35
2023-03-11T23:28:55.842Z,-3.54
2023-03-11T23:31:24.480Z,-3.45
2023-03-11T23:33:51.646Z,-3.44
2023-03-11T23:36:20.884Z,-3.41
2023-03-11T23:38:48.086Z,-3.44
2023-03-11T23:41:20.836Z,-3.52
2023-03-11T23:43:47.727Z,-3.51
2023-03-11T23:46:15.557Z,-3.45
2023-03-11T23:48:42.303Z,-3.68
2023-03-11T23:51:09.369Z,-3.52
2023-03-11T23:53:36.901Z,-3.61
2023-03-11T23:56:09.686Z,-3.65
2023-03-11T23:58:36.261Z,-3.59
